Blasdell, New York
Current Conditions -  °F | °C
As of 10:54 PM on Monday 20 Oct 2014 (Local Time) from KBUF Reporting Station
Light Rain Light Rain  
Wind Chill: 51°   Ceiling: 2800
Heat Index: 51°   Visibility: 7mi
Dew Point: 46°   Wind: 14mph
Humidity: 83%   Direction: 210°SSW
Pressure: 29.82"   Gusts: NA
Location:  42.7886°N, 78.827°W
Report Text: KBUF 210254Z 21012KT 7SM -RA FEW022 BKN028 OVC040 11/08 A2982 RMK AO2 SLP100 RAB40 P0000 60000 T01060078 58003
Loading
Personal Weather Stations






























Interactive Weather Map
Tropical Storm Tracking
New forecast layout! Learn more

10-Day Weather Forecast

Advertisements
Track Severe Weather on mobile